sensor_id;sensor_type;location;lat;lon;timestamp;P1;durP1;ratioP1;P2;durP2;ratioP2
9042;SDS011;4556;49.150;8.808;2023-04-06T00:00:48;9.43;;;8.17;;
9042;SDS011;4556;49.150;8.808;2023-04-06T00:03:16;10.63;;;8.13;;
9042;SDS011;4556;49.150;8.808;2023-04-06T00:05:43;11.37;;;8.27;;
9042;SDS011;4556;49.150;8.808;2023-04-06T00:08:10;10.30;;;7.27;;
9042;SDS011;4556;49.150;8.808;2023-04-06T00:10:39;9.27;;;7.00;;
9042;SDS011;4556;49.150;8.808;2023-04-06T00:13:06;8.47;;;7.03;;
9042;SDS011;4556;49.150;8.808;2023-04-06T00:15:34;9.30;;;7.40;;
9042;SDS011;4556;49.150;8.808;2023-04-06T00:18:01;7.70;;;6.47;;
9042;SDS011;4556;49.150;8.808;2023-04-06T00:20:28;10.20;;;7.20;;
9042;SDS011;4556;49.150;8.808;2023-04-06T00:22:55;9.57;;;7.40;;
9042;SDS011;4556;49.150;8.808;2023-04-06T00:25:23;10.70;;;7.67;;
9042;SDS011;4556;49.150;8.808;2023-04-06T00:27:52;9.27;;;7.60;;
9042;SDS011;4556;49.150;8.808;2023-04-06T00:30:19;10.23;;;7.90;;
9042;SDS011;4556;49.150;8.808;2023-04-06T00:32:47;9.33;;;8.07;;
9042;SDS011;4556;49.150;8.808;2023-04-06T00:35:14;10.57;;;7.67;;
9042;SDS011;4556;49.150;8.808;2023-04-06T00:37:41;12.43;;;7.77;;
9042;SDS011;4556;49.150;8.808;2023-04-06T00:40:09;10.37;;;7.83;;
9042;SDS011;4556;49.150;8.808;2023-04-06T00:42:37;9.27;;;7.63;;
9042;SDS011;4556;49.150;8.808;2023-04-06T00:45:06;11.20;;;8.60;;
9042;SDS011;4556;49.150;8.808;2023-04-06T00:47:34;12.60;;;9.00;;
9042;SDS011;4556;49.150;8.808;2023-04-06T00:50:01;10.20;;;7.90;;
9042;SDS011;4556;49.150;8.808;2023-04-06T00:52:29;10.77;;;8.60;;
9042;SDS011;4556;49.150;8.808;2023-04-06T00:54:56;11.57;;;8.47;;
9042;SDS011;4556;49.150;8.808;2023-04-06T00:57:24;10.93;;;8.30;;
9042;SDS011;4556;49.150;8.808;2023-04-06T00:59:51;10.03;;;7.77;;
9042;SDS011;4556;49.150;8.808;2023-04-06T01:02:20;11.87;;;8.50;;
9042;SDS011;4556;49.150;8.808;2023-04-06T01:04:47;9.80;;;7.60;;
9042;SDS011;4556;49.150;8.808;2023-04-06T01:07:15;12.10;;;8.97;;
9042;SDS011;4556;49.150;8.808;2023-04-06T01:09:42;11.07;;;8.80;;
9042;SDS011;4556;49.150;8.808;2023-04-06T01:12:09;11.57;;;9.67;;
9042;SDS011;4556;49.150;8.808;2023-04-06T01:14:36;12.17;;;9.00;;
9042;SDS011;4556;49.150;8.808;2023-04-06T01:17:04;13.93;;;9.17;;
9042;SDS011;4556;49.150;8.808;2023-04-06T01:19:33;12.83;;;9.33;;
9042;SDS011;4556;49.150;8.808;2023-04-06T01:22:00;12.97;;;9.03;;
9042;SDS011;4556;49.150;8.808;2023-04-06T01:24:29;10.07;;;8.60;;
9042;SDS011;4556;49.150;8.808;2023-04-06T01:26:57;13.03;;;9.23;;
9042;SDS011;4556;49.150;8.808;2023-04-06T01:29:24;13.33;;;10.00;;
9042;SDS011;4556;49.150;8.808;2023-04-06T01:31:51;11.53;;;9.17;;
9042;SDS011;4556;49.150;8.808;2023-04-06T01:34:18;13.93;;;9.93;;
9042;SDS011;4556;49.150;8.808;2023-04-06T01:36:46;13.63;;;10.27;;
9042;SDS011;4556;49.150;8.808;2023-04-06T01:39:13;14.00;;;9.60;;
9042;SDS011;4556;49.150;8.808;2023-04-06T01:41:42;11.57;;;9.07;;
9042;SDS011;4556;49.150;8.808;2023-04-06T01:44:10;12.00;;;9.03;;
9042;SDS011;4556;49.150;8.808;2023-04-06T01:46:37;13.10;;;9.60;;
9042;SDS011;4556;49.150;8.808;2023-04-06T01:49:04;13.73;;;10.00;;
9042;SDS011;4556;49.150;8.808;2023-04-06T01:51:31;13.60;;;10.37;;
9042;SDS011;4556;49.150;8.808;2023-04-06T01:53:58;11.90;;;8.90;;
9042;SDS011;4556;49.150;8.808;2023-04-06T01:56:26;11.07;;;9.20;;
9042;SDS011;4556;49.150;8.808;2023-04-06T01:58:54;11.87;;;9.57;;
9042;SDS011;4556;49.150;8.808;2023-04-06T02:01:22;11.90;;;9.37;;
9042;SDS011;4556;49.150;8.808;2023-04-06T02:03:49;10.90;;;9.57;;
9042;SDS011;4556;49.150;8.808;2023-04-06T02:06:16;12.17;;;9.43;;
9042;SDS011;4556;49.150;8.808;2023-04-06T02:08:43;12.37;;;9.37;;
9042;SDS011;4556;49.150;8.808;2023-04-06T02:11:11;14.17;;;9.23;;
9042;SDS011;4556;49.150;8.808;2023-04-06T02:13:38;10.47;;;9.13;;
9042;SDS011;4556;49.150;8.808;2023-04-06T02:16:07;13.10;;;10.00;;
9042;SDS011;4556;49.150;8.808;2023-04-06T02:18:34;11.03;;;9.70;;
9042;SDS011;4556;49.150;8.808;2023-04-06T02:21:02;12.03;;;10.00;;
9042;SDS011;4556;49.150;8.808;2023-04-06T02:23:29;11.10;;;9.90;;
9042;SDS011;4556;49.150;8.808;2023-04-06T02:25:57;12.33;;;9.90;;
9042;SDS011;4556;49.150;8.808;2023-04-06T02:28:23;11.67;;;10.10;;
9042;SDS011;4556;49.150;8.808;2023-04-06T02:30:51;13.03;;;10.23;;
9042;SDS011;4556;49.150;8.808;2023-04-06T02:33:19;13.20;;;9.33;;
9042;SDS011;4556;49.150;8.808;2023-04-06T02:35:47;12.23;;;9.87;;
9042;SDS011;4556;49.150;8.808;2023-04-06T02:38:14;12.97;;;9.63;;
9042;SDS011;4556;49.150;8.808;2023-04-06T02:40:41;13.70;;;9.37;;
9042;SDS011;4556;49.150;8.808;2023-04-06T02:43:08;13.43;;;9.33;;
9042;SDS011;4556;49.150;8.808;2023-04-06T02:45:35;12.13;;;8.97;;
9042;SDS011;4556;49.150;8.808;2023-04-06T02:48:03;12.83;;;9.53;;
9042;SDS011;4556;49.150;8.808;2023-04-06T02:50:32;11.53;;;9.23;;
9042;SDS011;4556;49.150;8.808;2023-04-06T02:52:59;12.27;;;9.60;;
9042;SDS011;4556;49.150;8.808;2023-04-06T02:55:26;10.83;;;9.00;;
9042;SDS011;4556;49.150;8.808;2023-04-06T02:57:53;11.17;;;9.43;;
9042;SDS011;4556;49.150;8.808;2023-04-06T03:00:21;12.23;;;9.83;;
9042;SDS011;4556;49.150;8.808;2023-04-06T03:02:48;12.03;;;9.53;;
9042;SDS011;4556;49.150;8.808;2023-04-06T03:05:15;12.30;;;9.60;;
9042;SDS011;4556;49.150;8.808;2023-04-06T03:07:44;15.73;;;9.77;;
9042;SDS011;4556;49.150;8.808;2023-04-06T03:10:11;12.47;;;9.73;;
9042;SDS011;4556;49.150;8.808;2023-04-06T03:12:39;12.47;;;10.33;;
9042;SDS011;4556;49.150;8.808;2023-04-06T03:15:07;11.43;;;9.57;;
9042;SDS011;4556;49.150;8.808;2023-04-06T03:17:35;12.03;;;9.40;;
9042;SDS011;4556;49.150;8.808;2023-04-06T03:20:02;11.33;;;9.33;;
9042;SDS011;4556;49.150;8.808;2023-04-06T03:22:30;11.80;;;10.33;;
9042;SDS011;4556;49.150;8.808;2023-04-06T03:24:59;14.10;;;9.90;;
9042;SDS011;4556;49.150;8.808;2023-04-06T03:27:26;11.97;;;9.27;;
9042;SDS011;4556;49.150;8.808;2023-04-06T03:29:53;11.60;;;9.17;;
9042;SDS011;4556;49.150;8.808;2023-04-06T03:32:21;12.27;;;9.90;;
9042;SDS011;4556;49.150;8.808;2023-04-06T03:34:48;12.50;;;9.50;;
9042;SDS011;4556;49.150;8.808;2023-04-06T03:37:15;11.13;;;9.60;;
9042;SDS011;4556;49.150;8.808;2023-04-06T03:39:42;11.63;;;9.53;;
9042;SDS011;4556;49.150;8.808;2023-04-06T03:42:11;12.47;;;9.53;;
9042;SDS011;4556;49.150;8.808;2023-04-06T03:44:38;12.13;;;9.80;;
9042;SDS011;4556;49.150;8.808;2023-04-06T03:47:05;15.00;;;10.63;;
9042;SDS011;4556;49.150;8.808;2023-04-06T03:49:33;14.07;;;10.77;;
9042;SDS011;4556;49.150;8.808;2023-04-06T03:52:00;10.87;;;9.60;;
9042;SDS011;4556;49.150;8.808;2023-04-06T03:54:27;16.03;;;10.53;;
9042;SDS011;4556;49.150;8.808;2023-04-06T03:56:54;12.10;;;9.90;;
9042;SDS011;4556;49.150;8.808;2023-04-06T03:59:23;11.80;;;9.70;;
9042;SDS011;4556;49.150;8.808;2023-04-06T04:01:50;13.60;;;9.90;;
9042;SDS011;4556;49.150;8.808;2023-04-06T04:04:17;12.67;;;10.40;;
9042;SDS011;4556;49.150;8.808;2023-04-06T04:06:44;13.93;;;10.77;;
9042;SDS011;4556;49.150;8.808;2023-04-06T04:09:11;12.67;;;10.53;;
9042;SDS011;4556;49.150;8.808;2023-04-06T04:11:38;13.33;;;10.57;;
9042;SDS011;4556;49.150;8.808;2023-04-06T04:14:05;13.60;;;10.80;;
9042;SDS011;4556;49.150;8.808;2023-04-06T04:16:34;15.23;;;11.40;;
9042;SDS011;4556;49.150;8.808;2023-04-06T04:19:02;14.80;;;11.07;;
9042;SDS011;4556;49.150;8.808;2023-04-06T04:21:29;14.50;;;10.97;;
9042;SDS011;4556;49.150;8.808;2023-04-06T04:23:58;14.90;;;11.37;;
9042;SDS011;4556;49.150;8.808;2023-04-06T04:26:25;14.10;;;11.70;;
9042;SDS011;4556;49.150;8.808;2023-04-06T04:28:52;14.93;;;10.43;;
9042;SDS011;4556;49.150;8.808;2023-04-06T04:31:19;14.63;;;11.73;;
9042;SDS011;4556;49.150;8.808;2023-04-06T04:33:49;14.73;;;11.40;;
9042;SDS011;4556;49.150;8.808;2023-04-06T04:36:16;13.27;;;10.77;;
9042;SDS011;4556;49.150;8.808;2023-04-06T04:38:43;12.13;;;10.43;;
9042;SDS011;4556;49.150;8.808;2023-04-06T04:41:10;11.00;;;9.57;;
9042;SDS011;4556;49.150;8.808;2023-04-06T04:43:37;12.53;;;10.43;;
9042;SDS011;4556;49.150;8.808;2023-04-06T04:46:05;12.97;;;10.13;;
9042;SDS011;4556;49.150;8.808;2023-04-06T04:48:32;13.37;;;10.97;;
9042;SDS011;4556;49.150;8.808;2023-04-06T04:51:01;11.97;;;10.60;;
9042;SDS011;4556;49.150;8.808;2023-04-06T04:53:28;13.13;;;10.67;;
9042;SDS011;4556;49.150;8.808;2023-04-06T04:55:55;16.97;;;12.20;;
9042;SDS011;4556;49.150;8.808;2023-04-06T04:58:22;14.90;;;11.50;;
9042;SDS011;4556;49.150;8.808;2023-04-06T05:00:50;13.30;;;11.30;;
9042;SDS011;4556;49.150;8.808;2023-04-06T05:03:18;15.13;;;11.93;;
9042;SDS011;4556;49.150;8.808;2023-04-06T05:05:48;14.87;;;12.07;;
9042;SDS011;4556;49.150;8.808;2023-04-06T05:08:17;15.70;;;11.73;;
9042;SDS011;4556;49.150;8.808;2023-04-06T05:10:45;14.40;;;11.93;;
9042;SDS011;4556;49.150;8.808;2023-04-06T05:13:13;17.63;;;13.13;;
9042;SDS011;4556;49.150;8.808;2023-04-06T05:15:40;15.47;;;12.27;;
9042;SDS011;4556;49.150;8.808;2023-04-06T05:18:08;12.50;;;10.40;;
9042;SDS011;4556;49.150;8.808;2023-04-06T05:20:36;16.10;;;11.40;;
9042;SDS011;4556;49.150;8.808;2023-04-06T05:23:04;15.03;;;11.47;;
9042;SDS011;4556;49.150;8.808;2023-04-06T05:25:33;15.23;;;12.00;;
9042;SDS011;4556;49.150;8.808;2023-04-06T05:28:00;13.63;;;10.87;;
9042;SDS011;4556;49.150;8.808;2023-04-06T05:30:28;14.13;;;11.20;;
9042;SDS011;4556;49.150;8.808;2023-04-06T05:32:55;12.93;;;10.77;;
9042;SDS011;4556;49.150;8.808;2023-04-06T05:35:22;14.17;;;11.30;;
9042;SDS011;4556;49.150;8.808;2023-04-06T05:37:50;14.47;;;11.50;;
9042;SDS011;4556;49.150;8.808;2023-04-06T05:40:17;13.43;;;10.83;;
9042;SDS011;4556;49.150;8.808;2023-04-06T05:42:46;14.13;;;11.50;;
9042;SDS011;4556;49.150;8.808;2023-04-06T05:45:14;15.97;;;12.27;;
9042;SDS011;4556;49.150;8.808;2023-04-06T05:47:43;15.80;;;11.63;;
9042;SDS011;4556;49.150;8.808;2023-04-06T05:50:10;14.93;;;11.77;;
9042;SDS011;4556;49.150;8.808;2023-04-06T05:52:38;15.47;;;12.30;;
9042;SDS011;4556;49.150;8.808;2023-04-06T05:55:08;15.90;;;12.70;;
9042;SDS011;4556;49.150;8.808;2023-04-06T05:57:36;20.10;;;13.90;;
9042;SDS011;4556;49.150;8.808;2023-04-06T06:00:08;17.70;;;12.63;;
9042;SDS011;4556;49.150;8.808;2023-04-06T06:02:36;19.93;;;13.77;;
9042;SDS011;4556;49.150;8.808;2023-04-06T06:05:04;15.47;;;12.70;;
9042;SDS011;4556;49.150;8.808;2023-04-06T06:07:32;16.17;;;12.73;;
9042;SDS011;4556;49.150;8.808;2023-04-06T06:09:59;13.33;;;11.23;;
9042;SDS011;4556;49.150;8.808;2023-04-06T06:12:26;17.47;;;11.87;;
9042;SDS011;4556;49.150;8.808;2023-04-06T06:14:53;14.03;;;11.53;;
9042;SDS011;4556;49.150;8.808;2023-04-06T06:17:22;15.90;;;11.20;;
9042;SDS011;4556;49.150;8.808;2023-04-06T06:19:49;16.80;;;11.37;;
9042;SDS011;4556;49.150;8.808;2023-04-06T06:22:17;20.23;;;12.13;;
9042;SDS011;4556;49.150;8.808;2023-04-06T06:24:44;27.27;;;11.93;;
9042;SDS011;4556;49.150;8.808;2023-04-06T06:27:11;16.93;;;11.83;;
9042;SDS011;4556;49.150;8.808;2023-04-06T06:29:38;20.57;;;12.13;;
9042;SDS011;4556;49.150;8.808;2023-04-06T06:32:05;19.53;;;12.73;;
9042;SDS011;4556;49.150;8.808;2023-04-06T06:34:35;22.37;;;11.20;;
9042;SDS011;4556;49.150;8.808;2023-04-06T06:37:02;19.13;;;11.13;;
9042;SDS011;4556;49.150;8.808;2023-04-06T06:39:30;19.33;;;11.43;;
9042;SDS011;4556;49.150;8.808;2023-04-06T06:41:57;20.97;;;12.10;;
9042;SDS011;4556;49.150;8.808;2023-04-06T06:44:26;23.63;;;11.77;;
9042;SDS011;4556;49.150;8.808;2023-04-06T06:46:53;24.40;;;10.83;;
9042;SDS011;4556;49.150;8.808;2023-04-06T06:49:20;20.50;;;11.90;;
9042;SDS011;4556;49.150;8.808;2023-04-06T06:51:49;29.23;;;12.50;;
9042;SDS011;4556;49.150;8.808;2023-04-06T06:54:16;24.20;;;11.00;;
9042;SDS011;4556;49.150;8.808;2023-04-06T06:56:43;18.27;;;11.57;;
9042;SDS011;4556;49.150;8.808;2023-04-06T06:59:11;29.23;;;12.50;;
9042;SDS011;4556;49.150;8.808;2023-04-06T07:01:38;14.30;;;10.97;;
9042;SDS011;4556;49.150;8.808;2023-04-06T07:04:05;16.13;;;11.13;;
9042;SDS011;4556;49.150;8.808;2023-04-06T07:06:34;19.20;;;11.07;;
9042;SDS011;4556;49.150;8.808;2023-04-06T07:09:03;17.13;;;11.57;;
9042;SDS011;4556;49.150;8.808;2023-04-06T07:11:31;18.17;;;11.17;;
9042;SDS011;4556;49.150;8.808;2023-04-06T10:46:59;6.80;;;5.77;;
9042;SDS011;4556;49.150;8.808;2023-04-06T10:49:26;8.33;;;6.20;;
9042;SDS011;4556;49.150;8.808;2023-04-06T10:51:53;8.93;;;5.80;;
9042;SDS011;4556;49.150;8.808;2023-04-06T10:54:21;9.40;;;6.07;;
9042;SDS011;4556;49.150;8.808;2023-04-06T10:56:50;6.50;;;5.53;;
9042;SDS011;4556;49.150;8.808;2023-04-06T10:59:19;6.40;;;5.80;;
9042;SDS011;4556;49.150;8.808;2023-04-06T11:01:47;7.67;;;5.93;;
9042;SDS011;4556;49.150;8.808;2023-04-06T11:04:17;7.80;;;7.00;;
9042;SDS011;4556;49.150;8.808;2023-04-06T11:06:46;7.07;;;5.53;;
9042;SDS011;4556;49.150;8.808;2023-04-06T11:09:22;8.50;;;7.17;;
9042;SDS011;4556;49.150;8.808;2023-04-06T11:11:51;7.60;;;6.60;;
9042;SDS011;4556;49.150;8.808;2023-04-06T11:14:19;7.60;;;6.57;;
9042;SDS011;4556;49.150;8.808;2023-04-06T11:16:46;9.37;;;7.07;;
9042;SDS011;4556;49.150;8.808;2023-04-06T11:19:14;8.83;;;7.47;;
9042;SDS011;4556;49.150;8.808;2023-04-06T11:21:44;10.00;;;6.47;;
9042;SDS011;4556;49.150;8.808;2023-04-06T11:24:13;9.03;;;6.60;;
9042;SDS011;4556;49.150;8.808;2023-04-06T11:26:42;8.07;;;6.60;;
9042;SDS011;4556;49.150;8.808;2023-04-06T11:29:11;7.27;;;6.57;;
9042;SDS011;4556;49.150;8.808;2023-04-06T11:31:42;8.53;;;6.37;;
9042;SDS011;4556;49.150;8.808;2023-04-06T11:34:12;10.73;;;7.00;;
9042;SDS011;4556;49.150;8.808;2023-04-06T11:36:44;7.67;;;6.87;;
9042;SDS011;4556;49.150;8.808;2023-04-06T11:39:12;7.63;;;6.40;;
9042;SDS011;4556;49.150;8.808;2023-04-06T11:41:40;8.43;;;7.13;;
9042;SDS011;4556;49.150;8.808;2023-04-06T11:44:07;8.17;;;6.73;;
9042;SDS011;4556;49.150;8.808;2023-04-06T11:46:34;7.63;;;6.83;;
9042;SDS011;4556;49.150;8.808;2023-04-06T11:49:01;9.00;;;7.23;;
9042;SDS011;4556;49.150;8.808;2023-04-06T11:51:29;11.70;;;7.20;;
9042;SDS011;4556;49.150;8.808;2023-04-06T11:53:57;11.60;;;7.77;;
9042;SDS011;4556;49.150;8.808;2023-04-06T11:56:26;7.40;;;6.57;;
9042;SDS011;4556;49.150;8.808;2023-04-06T11:58:54;8.50;;;6.90;;
9042;SDS011;4556;49.150;8.808;2023-04-06T12:01:22;9.13;;;6.77;;
9042;SDS011;4556;49.150;8.808;2023-04-06T12:03:50;9.10;;;7.07;;
9042;SDS011;4556;49.150;8.808;2023-04-06T12:06:17;7.80;;;6.73;;
9042;SDS011;4556;49.150;8.808;2023-04-06T12:08:44;8.70;;;6.40;;
9042;SDS011;4556;49.150;8.808;2023-04-06T12:11:13;8.63;;;6.67;;
9042;SDS011;4556;49.150;8.808;2023-04-06T12:13:40;7.10;;;6.37;;
9042;SDS011;4556;49.150;8.808;2023-04-06T12:16:07;8.40;;;7.60;;
9042;SDS011;4556;49.150;8.808;2023-04-06T12:18:35;9.37;;;7.10;;
9042;SDS011;4556;49.150;8.808;2023-04-06T12:21:02;7.40;;;5.90;;
9042;SDS011;4556;49.150;8.808;2023-04-06T12:23:30;7.67;;;5.67;;
9042;SDS011;4556;49.150;8.808;2023-04-06T12:25:59;8.27;;;6.50;;
9042;SDS011;4556;49.150;8.808;2023-04-06T12:28:28;9.10;;;6.53;;
9042;SDS011;4556;49.150;8.808;2023-04-06T12:30:55;7.93;;;6.87;;
9042;SDS011;4556;49.150;8.808;2023-04-06T12:33:22;8.17;;;7.33;;
9042;SDS011;4556;49.150;8.808;2023-04-06T12:35:49;7.40;;;6.60;;
9042;SDS011;4556;49.150;8.808;2023-04-06T12:38:18;8.43;;;7.23;;
9042;SDS011;4556;49.150;8.808;2023-04-06T12:40:45;8.83;;;6.87;;
9042;SDS011;4556;49.150;8.808;2023-04-06T12:43:14;9.03;;;6.93;;
9042;SDS011;4556;49.150;8.808;2023-04-06T12:45:43;9.27;;;6.77;;
9042;SDS011;4556;49.150;8.808;2023-04-06T12:48:11;9.20;;;6.43;;
9042;SDS011;4556;49.150;8.808;2023-04-06T12:50:38;10.47;;;6.67;;
9042;SDS011;4556;49.150;8.808;2023-04-06T12:53:05;7.33;;;6.33;;
9042;SDS011;4556;49.150;8.808;2023-04-06T12:55:32;7.63;;;6.23;;
9042;SDS011;4556;49.150;8.808;2023-04-06T12:58:00;6.90;;;6.20;;
9042;SDS011;4556;49.150;8.808;2023-04-06T13:00:28;8.73;;;6.13;;
9042;SDS011;4556;49.150;8.808;2023-04-06T13:02:57;7.23;;;5.80;;
9042;SDS011;4556;49.150;8.808;2023-04-06T13:05:24;7.20;;;6.10;;
9042;SDS011;4556;49.150;8.808;2023-04-06T13:07:51;8.63;;;6.70;;
9042;SDS011;4556;49.150;8.808;2023-04-06T13:10:18;9.47;;;6.87;;
9042;SDS011;4556;49.150;8.808;2023-04-06T13:12:45;7.43;;;6.53;;
9042;SDS011;4556;49.150;8.808;2023-04-06T13:15:12;7.40;;;6.17;;
9042;SDS011;4556;49.150;8.808;2023-04-06T13:17:40;7.43;;;6.17;;
9042;SDS011;4556;49.150;8.808;2023-04-06T13:20:09;9.23;;;6.60;;
9042;SDS011;4556;49.150;8.808;2023-04-06T13:22:36;7.80;;;6.27;;
9042;SDS011;4556;49.150;8.808;2023-04-06T13:25:03;8.37;;;6.30;;
9042;SDS011;4556;49.150;8.808;2023-04-06T13:27:31;9.57;;;6.90;;
9042;SDS011;4556;49.150;8.808;2023-04-06T13:30:00;6.67;;;5.90;;
9042;SDS011;4556;49.150;8.808;2023-04-06T13:32:28;7.57;;;6.43;;
9042;SDS011;4556;49.150;8.808;2023-04-06T13:34:55;7.13;;;6.40;;
9042;SDS011;4556;49.150;8.808;2023-04-06T13:37:24;7.80;;;6.43;;
9042;SDS011;4556;49.150;8.808;2023-04-06T13:39:52;7.40;;;6.57;;
9042;SDS011;4556;49.150;8.808;2023-04-06T13:42:19;8.77;;;7.07;;
9042;SDS011;4556;49.150;8.808;2023-04-06T13:44:47;7.77;;;6.47;;
9042;SDS011;4556;49.150;8.808;2023-04-06T13:47:15;7.63;;;6.60;;
9042;SDS011;4556;49.150;8.808;2023-04-06T13:49:42;9.63;;;6.57;;
9042;SDS011;4556;49.150;8.808;2023-04-06T13:52:10;9.00;;;6.50;;
9042;SDS011;4556;49.150;8.808;2023-04-06T13:54:38;8.07;;;5.87;;
9042;SDS011;4556;49.150;8.808;2023-04-06T13:57:06;6.50;;;5.77;;
9042;SDS011;4556;49.150;8.808;2023-04-06T13:59:33;7.23;;;5.37;;
9042;SDS011;4556;49.150;8.808;2023-04-06T14:02:00;7.40;;;5.37;;
9042;SDS011;4556;49.150;8.808;2023-04-06T14:04:27;7.60;;;5.90;;
9042;SDS011;4556;49.150;8.808;2023-04-06T14:06:54;8.17;;;5.93;;
9042;SDS011;4556;49.150;8.808;2023-04-06T14:09:22;6.90;;;6.10;;
9042;SDS011;4556;49.150;8.808;2023-04-06T14:11:51;10.53;;;6.40;;
9042;SDS011;4556;49.150;8.808;2023-04-06T14:14:18;7.60;;;6.80;;
9042;SDS011;4556;49.150;8.808;2023-04-06T14:16:45;8.47;;;6.10;;
9042;SDS011;4556;49.150;8.808;2023-04-06T14:19:16;8.60;;;6.03;;
9042;SDS011;4556;49.150;8.808;2023-04-06T14:21:44;8.07;;;5.73;;
9042;SDS011;4556;49.150;8.808;2023-04-06T14:24:11;7.73;;;5.67;;
9042;SDS011;4556;49.150;8.808;2023-04-06T14:26:39;8.73;;;5.80;;
9042;SDS011;4556;49.150;8.808;2023-04-06T14:29:09;8.03;;;5.60;;
9042;SDS011;4556;49.150;8.808;2023-04-06T14:31:36;6.93;;;5.23;;
9042;SDS011;4556;49.150;8.808;2023-04-06T14:34:03;7.07;;;5.60;;
9042;SDS011;4556;49.150;8.808;2023-04-06T14:36:30;7.30;;;5.60;;
9042;SDS011;4556;49.150;8.808;2023-04-06T14:39:01;7.23;;;5.37;;
9042;SDS011;4556;49.150;8.808;2023-04-06T14:41:31;7.53;;;5.63;;
9042;SDS011;4556;49.150;8.808;2023-04-06T14:43:58;9.33;;;5.83;;
9042;SDS011;4556;49.150;8.808;2023-04-06T14:46:27;7.47;;;5.53;;
9042;SDS011;4556;49.150;8.808;2023-04-06T14:48:54;7.63;;;5.27;;
9042;SDS011;4556;49.150;8.808;2023-04-06T14:51:23;8.07;;;5.80;;
9042;SDS011;4556;49.150;8.808;2023-04-06T14:53:52;7.13;;;6.00;;
9042;SDS011;4556;49.150;8.808;2023-04-06T14:56:20;8.57;;;6.30;;
9042;SDS011;4556;49.150;8.808;2023-04-06T14:58:47;8.73;;;6.00;;
9042;SDS011;4556;49.150;8.808;2023-04-06T15:01:15;7.77;;;6.03;;
9042;SDS011;4556;49.150;8.808;2023-04-06T15:03:43;7.77;;;5.60;;
9042;SDS011;4556;49.150;8.808;2023-04-06T15:06:12;6.03;;;4.70;;
9042;SDS011;4556;49.150;8.808;2023-04-06T15:08:41;9.00;;;6.23;;
9042;SDS011;4556;49.150;8.808;2023-04-06T15:11:08;9.50;;;5.80;;
9042;SDS011;4556;49.150;8.808;2023-04-06T15:13:35;7.07;;;5.70;;
9042;SDS011;4556;49.150;8.808;2023-04-06T15:16:02;7.60;;;5.57;;
9042;SDS011;4556;49.150;8.808;2023-04-06T15:18:30;7.57;;;5.70;;
9042;SDS011;4556;49.150;8.808;2023-04-06T15:20:58;7.23;;;5.53;;
9042;SDS011;4556;49.150;8.808;2023-04-06T15:23:25;7.47;;;5.60;;
9042;SDS011;4556;49.150;8.808;2023-04-06T15:25:54;7.87;;;5.67;;
9042;SDS011;4556;49.150;8.808;2023-04-06T15:28:21;6.73;;;5.03;;
9042;SDS011;4556;49.150;8.808;2023-04-06T15:30:48;7.77;;;5.80;;
9042;SDS011;4556;49.150;8.808;2023-04-06T15:33:16;7.17;;;5.30;;
9042;SDS011;4556;49.150;8.808;2023-04-06T15:35:43;7.90;;;5.43;;
9042;SDS011;4556;49.150;8.808;2023-04-06T15:38:11;6.20;;;5.07;;
9042;SDS011;4556;49.150;8.808;2023-04-06T15:40:41;5.60;;;4.60;;
9042;SDS011;4556;49.150;8.808;2023-04-06T15:43:10;6.20;;;4.30;;
9042;SDS011;4556;49.150;8.808;2023-04-06T15:45:37;6.13;;;4.90;;
9042;SDS011;4556;49.150;8.808;2023-04-06T15:48:04;5.70;;;4.37;;
9042;SDS011;4556;49.150;8.808;2023-04-06T15:50:31;9.87;;;4.60;;
9042;SDS011;4556;49.150;8.808;2023-04-06T15:52:58;5.83;;;4.63;;
9042;SDS011;4556;49.150;8.808;2023-04-06T15:55:27;5.70;;;4.87;;
9042;SDS011;4556;49.150;8.808;2023-04-06T15:57:54;7.53;;;3.93;;
9042;SDS011;4556;49.150;8.808;2023-04-06T16:00:22;5.60;;;4.47;;
9042;SDS011;4556;49.150;8.808;2023-04-06T16:02:49;6.77;;;4.47;;
9042;SDS011;4556;49.150;8.808;2023-04-06T16:05:16;6.90;;;4.63;;
9042;SDS011;4556;49.150;8.808;2023-04-06T16:07:43;6.80;;;3.77;;
9042;SDS011;4556;49.150;8.808;2023-04-06T16:10:10;6.47;;;4.17;;
9042;SDS011;4556;49.150;8.808;2023-04-06T16:12:39;4.67;;;4.03;;
9042;SDS011;4556;49.150;8.808;2023-04-06T16:15:07;5.63;;;4.10;;
9042;SDS011;4556;49.150;8.808;2023-04-06T16:17:35;7.57;;;4.60;;
9042;SDS011;4556;49.150;8.808;2023-04-06T16:20:02;7.30;;;4.90;;
9042;SDS011;4556;49.150;8.808;2023-04-06T16:22:30;6.30;;;4.73;;
9042;SDS011;4556;49.150;8.808;2023-04-06T16:24:57;8.43;;;4.50;;
9042;SDS011;4556;49.150;8.808;2023-04-06T16:27:24;8.87;;;5.40;;
9042;SDS011;4556;49.150;8.808;2023-04-06T16:29:53;7.97;;;5.20;;
9042;SDS011;4556;49.150;8.808;2023-04-06T16:32:20;10.53;;;5.63;;
9042;SDS011;4556;49.150;8.808;2023-04-06T16:34:47;9.00;;;5.63;;
9042;SDS011;4556;49.150;8.808;2023-04-06T16:37:15;6.70;;;5.00;;
9042;SDS011;4556;49.150;8.808;2023-04-06T16:39:42;9.33;;;5.43;;
9042;SDS011;4556;49.150;8.808;2023-04-06T16:42:09;7.53;;;5.00;;
9042;SDS011;4556;49.150;8.808;2023-04-06T16:44:36;7.90;;;5.03;;
9042;SDS011;4556;49.150;8.808;2023-04-06T16:47:04;7.10;;;5.00;;
9042;SDS011;4556;49.150;8.808;2023-04-06T16:49:31;8.23;;;5.27;;
9042;SDS011;4556;49.150;8.808;2023-04-06T16:51:58;5.60;;;4.43;;
9042;SDS011;4556;49.150;8.808;2023-04-06T16:54:27;6.93;;;4.90;;
9042;SDS011;4556;49.150;8.808;2023-04-06T16:56:55;7.60;;;5.10;;
9042;SDS011;4556;49.150;8.808;2023-04-06T16:59:22;7.13;;;5.17;;
9042;SDS011;4556;49.150;8.808;2023-04-06T17:01:49;7.67;;;4.90;;
9042;SDS011;4556;49.150;8.808;2023-04-06T17:04:18;7.90;;;5.30;;
9042;SDS011;4556;49.150;8.808;2023-04-06T17:06:46;8.23;;;4.67;;
9042;SDS011;4556;49.150;8.808;2023-04-06T17:09:13;7.37;;;4.70;;
9042;SDS011;4556;49.150;8.808;2023-04-06T17:11:40;8.67;;;4.80;;
9042;SDS011;4556;49.150;8.808;2023-04-06T17:14:07;8.50;;;5.10;;
9042;SDS011;4556;49.150;8.808;2023-04-06T17:16:35;6.90;;;4.60;;
9042;SDS011;4556;49.150;8.808;2023-04-06T17:19:02;8.70;;;4.73;;
9042;SDS011;4556;49.150;8.808;2023-04-06T17:21:30;6.80;;;4.50;;
9042;SDS011;4556;49.150;8.808;2023-04-06T17:23:57;7.33;;;5.00;;
9042;SDS011;4556;49.150;8.808;2023-04-06T17:26:24;6.77;;;4.40;;
9042;SDS011;4556;49.150;8.808;2023-04-06T17:28:51;6.23;;;4.40;;
9042;SDS011;4556;49.150;8.808;2023-04-06T17:31:18;6.37;;;4.30;;
9042;SDS011;4556;49.150;8.808;2023-04-06T17:33:46;5.90;;;4.07;;
9042;SDS011;4556;49.150;8.808;2023-04-06T17:36:13;6.27;;;4.37;;
9042;SDS011;4556;49.150;8.808;2023-04-06T17:38:42;4.60;;;3.43;;
9042;SDS011;4556;49.150;8.808;2023-04-06T17:41:10;4.17;;;2.87;;
9042;SDS011;4556;49.150;8.808;2023-04-06T17:43:38;4.60;;;3.07;;
9042;SDS011;4556;49.150;8.808;2023-04-06T17:46:06;3.53;;;2.60;;
9042;SDS011;4556;49.150;8.808;2023-04-06T17:48:33;3.53;;;2.53;;
9042;SDS011;4556;49.150;8.808;2023-04-06T17:51:00;5.97;;;2.57;;
9042;SDS011;4556;49.150;8.808;2023-04-06T17:53:27;4.60;;;2.60;;
9042;SDS011;4556;49.150;8.808;2023-04-06T17:55:58;3.73;;;2.50;;
9042;SDS011;4556;49.150;8.808;2023-04-06T17:58:27;2.87;;;2.57;;
9042;SDS011;4556;49.150;8.808;2023-04-06T18:00:55;3.93;;;2.87;;
9042;SDS011;4556;49.150;8.808;2023-04-06T18:03:22;5.33;;;2.60;;
9042;SDS011;4556;49.150;8.808;2023-04-06T18:05:49;3.03;;;2.70;;
9042;SDS011;4556;49.150;8.808;2023-04-06T18:08:16;4.23;;;3.27;;
9042;SDS011;4556;49.150;8.808;2023-04-06T18:10:43;6.30;;;3.50;;
9042;SDS011;4556;49.150;8.808;2023-04-06T18:13:11;4.70;;;3.10;;
9042;SDS011;4556;49.150;8.808;2023-04-06T18:15:39;4.63;;;3.30;;
9042;SDS011;4556;49.150;8.808;2023-04-06T18:18:06;4.03;;;3.33;;
9042;SDS011;4556;49.150;8.808;2023-04-06T18:20:33;4.83;;;3.57;;
9042;SDS011;4556;49.150;8.808;2023-04-06T18:23:05;4.20;;;3.47;;
9042;SDS011;4556;49.150;8.808;2023-04-06T18:25:36;5.03;;;3.07;;
9042;SDS011;4556;49.150;8.808;2023-04-06T18:28:03;4.43;;;3.50;;
9042;SDS011;4556;49.150;8.808;2023-04-06T18:30:33;4.67;;;3.40;;
9042;SDS011;4556;49.150;8.808;2023-04-06T18:33:00;4.70;;;3.83;;
9042;SDS011;4556;49.150;8.808;2023-04-06T18:35:28;3.93;;;3.43;;
9042;SDS011;4556;49.150;8.808;2023-04-06T18:37:55;5.03;;;3.43;;
9042;SDS011;4556;49.150;8.808;2023-04-06T18:40:32;4.70;;;3.63;;